createdAt,value
2022-10-11T00:01:36.340Z,102354.81
2022-10-11T00:04:05.299Z,102348.94
2022-10-11T00:07:02.649Z,102360.06
2022-10-11T00:09:32.057Z,102359.16
2022-10-11T00:12:03.115Z,102347.25
2022-10-11T00:14:34.032Z,102351.84
2022-10-11T00:17:02.943Z,102362.03
2022-10-11T00:19:31.759Z,102372.44
2022-10-11T00:22:01.145Z,102366.50
2022-10-11T00:24:32.150Z,102316.94
2022-10-11T00:27:03.060Z,102368.88
2022-10-11T00:29:32.359Z,102371.75
2022-10-11T00:32:01.589Z,102370.09
2022-10-11T00:34:30.584Z,102384.88
2022-10-11T00:36:59.813Z,102380.41
2022-10-11T00:39:29.188Z,102347.97
2022-10-11T00:41:58.079Z,102324.78
2022-10-11T00:44:33.964Z,102378.03
2022-10-11T00:47:06.017Z,102378.09
2022-10-11T01:17:18.354Z,102389.56
2022-10-11T01:20:03.736Z,102404.34
2022-10-11T01:23:09.197Z,102391.44
2022-10-11T01:25:47.080Z,102389.81
2022-10-11T01:28:30.037Z,102403.56
2022-10-11T01:31:05.495Z,102393.94
2022-10-11T01:33:41.863Z,102389.72
2022-10-11T01:36:41.355Z,102407.03
2022-10-11T01:39:15.992Z,102400.97
2022-10-11T01:41:50.004Z,102384.69
2022-10-11T01:44:21.123Z,102400.16
2022-10-11T01:46:52.245Z,102411.47
2022-10-11T01:49:22.060Z,102272.31
2022-10-11T01:51:53.988Z,102421.06
2022-10-11T01:55:03.869Z,102412.41
2022-10-11T01:57:45.513Z,102413.22
2022-10-11T02:00:17.650Z,102413.84
2022-10-11T02:03:03.508Z,102410.31
2022-10-11T02:05:44.426Z,102409.66
2022-10-11T02:08:20.201Z,102412.38
2022-10-11T02:10:55.016Z,102384.91
2022-10-11T02:13:28.448Z,102408.81
2022-10-11T02:16:00.072Z,102403.59
2022-10-11T02:18:36.222Z,102410.44
2022-10-11T02:21:08.817Z,102399.41
2022-10-11T02:23:42.164Z,102407.97
2022-10-11T02:26:14.567Z,102408.09
2022-10-11T02:28:48.693Z,102400.44
2022-10-11T02:31:19.121Z,102234.75
2022-10-11T02:33:54.857Z,102406.41
2022-10-11T02:36:31.385Z,102379.81
2022-10-11T02:39:05.092Z,102403.06
2022-10-11T02:41:39.662Z,102409.97
2022-10-11T02:44:13.066Z,102408.28
2022-10-11T02:46:45.602Z,102416.94
2022-10-11T02:49:17.486Z,102417.81
2022-10-11T02:51:46.680Z,102397.97
2022-10-11T02:54:16.102Z,102403.13
2022-10-11T02:56:45.309Z,102421.22
2022-10-11T02:59:14.263Z,102412.63
2022-10-11T03:01:43.704Z,102407.53
2022-10-11T03:04:17.525Z,102414.25
2022-10-11T03:06:46.402Z,102429.88
2022-10-11T03:09:15.783Z,102418.72
2022-10-11T03:11:45.044Z,102423.81
2022-10-11T03:14:14.316Z,102416.88
2022-10-11T03:16:43.535Z,102422.09
2022-10-11T03:19:19.307Z,102435.84
2022-10-11T03:21:48.862Z,102431.50
2022-10-11T03:24:17.698Z,102414.28
2022-10-11T03:26:46.635Z,102417.66
2022-10-11T03:29:16.378Z,102417.69
2022-10-11T03:31:45.649Z,102414.31
2022-10-11T03:34:16.102Z,102424.66
2022-10-11T03:36:45.507Z,102377.59
2022-10-11T03:39:16.863Z,102430.66
2022-10-11T03:41:46.112Z,102448.78
2022-10-11T03:44:15.170Z,102441.72
2022-10-11T03:46:44.083Z,102407.41
2022-10-11T03:49:13.236Z,102435.84
2022-10-11T03:51:43.557Z,102398.84
2022-10-11T03:54:12.712Z,102425.47
2022-10-11T03:56:41.619Z,102440.13
2022-10-11T03:59:10.859Z,102442.72
2022-10-11T04:01:39.896Z,102417.81
2022-10-11T04:04:09.006Z,102448.81
2022-10-11T04:06:37.875Z,102445.31
2022-10-11T04:09:08.171Z,102447.91
2022-10-11T04:11:37.269Z,102447.84
2022-10-11T04:14:07.167Z,102453.75
2022-10-11T04:16:38.853Z,102449.53
2022-10-11T04:19:07.702Z,102446.09
2022-10-11T04:21:36.560Z,102455.66
2022-10-11T04:24:06.677Z,102452.13
2022-10-11T04:26:36.797Z,102454.75
2022-10-11T04:29:06.176Z,102461.69
2022-10-11T04:31:35.209Z,102463.47
2022-10-11T04:34:04.263Z,102471.19
2022-10-11T04:36:34.217Z,102466.84
2022-10-11T04:39:03.085Z,102479.81
2022-10-11T04:41:32.005Z,102469.44
2022-10-11T04:44:02.511Z,102429.91
2022-10-11T04:46:31.452Z,102460.69
2022-10-11T04:49:02.821Z,102325.53
2022-10-11T04:51:33.899Z,102464.63
2022-10-11T04:54:07.446Z,102468.31
2022-10-11T04:56:36.893Z,102465.72
2022-10-11T04:59:07.349Z,102470.78
2022-10-11T05:01:38.451Z,102475.00
2022-10-11T05:04:07.775Z,102472.81
2022-10-11T05:06:39.194Z,102458.28
2022-10-11T05:09:07.944Z,102475.38
2022-10-11T05:11:37.857Z,102476.28
2022-10-11T05:14:11.682Z,102483.34
2022-10-11T05:16:41.076Z,102486.81
2022-10-11T05:19:10.504Z,102483.44
2022-10-11T05:21:39.606Z,102490.31
2022-10-11T05:24:09.587Z,102488.63
2022-10-11T05:26:38.475Z,102411.34
2022-10-11T05:29:07.409Z,102384.59
2022-10-11T05:31:37.728Z,102488.41
2022-10-11T05:34:09.517Z,102490.19
2022-10-11T05:36:38.679Z,102497.97
2022-10-11T05:39:07.836Z,102486.06
2022-10-11T05:41:37.300Z,102508.44
2022-10-11T05:44:09.722Z,102505.84
2022-10-11T05:46:40.704Z,102510.19
2022-10-11T05:49:10.090Z,102492.09
2022-10-11T05:51:39.506Z,102509.31
2022-10-11T05:54:10.864Z,102509.34
2022-10-11T05:56:39.916Z,102501.56
2022-10-11T05:59:09.481Z,102523.13
2022-10-11T06:01:38.615Z,102517.16
2022-10-11T06:04:09.244Z,102530.03
2022-10-11T06:06:38.753Z,102474.91
2022-10-11T06:09:07.796Z,102522.25
2022-10-11T06:11:37.050Z,102532.56
2022-10-11T06:14:06.016Z,102530.03
2022-10-11T06:16:34.949Z,102556.78
2022-10-11T06:19:04.619Z,102530.03
2022-10-11T06:21:34.698Z,102535.19
2022-10-11T06:24:03.863Z,102528.31
2022-10-11T06:26:32.927Z,102526.56
2022-10-11T06:29:02.359Z,102542.06
2022-10-11T06:31:31.496Z,102540.38
2022-10-11T06:34:00.698Z,102504.22
2022-10-11T06:36:29.975Z,102543.78
2022-10-11T06:39:01.733Z,102542.03
2022-10-11T06:41:32.380Z,102545.34
2022-10-11T06:44:01.581Z,102541.03
2022-10-11T06:46:32.714Z,102535.91
2022-10-11T06:49:01.835Z,102550.50
2022-10-11T06:51:31.179Z,102541.91
2022-10-11T06:54:02.062Z,102556.53
2022-10-11T06:56:32.737Z,102562.59
2022-10-11T06:59:01.987Z,102567.66
2022-10-11T07:01:32.812Z,102566.81
2022-10-11T07:04:03.132Z,102543.53
2022-10-11T07:06:32.547Z,102568.41
2022-10-11T07:09:03.019Z,102552.91
2022-10-11T07:11:34.807Z,102564.94
2022-10-11T07:14:07.925Z,102574.34
2022-10-11T07:16:37.839Z,102572.53
2022-10-11T07:19:07.953Z,102576.06
2022-10-11T07:21:37.284Z,102574.31
2022-10-11T07:24:08.182Z,102577.75
2022-10-11T07:26:38.880Z,102576.81
2022-10-11T07:29:09.574Z,102575.88
2022-10-11T07:31:40.720Z,102581.72
2022-10-11T07:34:11.187Z,102586.13
2022-10-11T07:36:39.953Z,102588.66
2022-10-11T07:39:12.996Z,102582.56
2022-10-11T07:41:45.954Z,102589.47
2022-10-11T07:44:15.923Z,102591.91
2022-10-11T07:46:47.498Z,102583.13
2022-10-11T07:49:20.002Z,102603.84
2022-10-11T07:51:48.846Z,102587.41
2022-10-11T07:54:19.464Z,102596.81
2022-10-11T07:56:48.860Z,102596.75
2022-10-11T07:59:18.136Z,102598.47
2022-10-11T08:01:48.302Z,102587.81
2022-10-11T08:04:19.671Z,102596.38
2022-10-11T08:06:53.343Z,102588.63
2022-10-11T08:09:24.033Z,102604.97
2022-10-11T08:11:56.009Z,102598.91
2022-10-11T08:14:25.060Z,102584.19
2022-10-11T08:17:22.505Z,102612.34
2022-10-11T08:20:22.421Z,102605.25
2022-10-11T08:22:53.869Z,102610.28
2022-10-11T08:25:24.303Z,102606.81
2022-10-11T08:27:52.980Z,102534.81
2022-10-11T08:30:21.846Z,102623.72
2022-10-11T08:32:50.848Z,102620.94
2022-10-11T08:35:19.626Z,102619.84
2022-10-11T08:37:48.826Z,102628.19
2022-10-11T08:40:19.045Z,102621.75
2022-10-11T08:42:56.027Z,102613.00
2022-10-11T08:45:32.621Z,102626.34
2022-10-11T08:48:15.459Z,102630.28
2022-10-11T08:51:16.217Z,102629.06
2022-10-11T08:54:18.006Z,102631.91
2022-10-11T08:56:48.135Z,102636.66
2022-10-11T08:59:30.330Z,102633.75
2022-10-11T09:02:55.828Z,102635.63
2022-10-11T09:05:37.449Z,102638.50
2022-10-11T09:08:53.763Z,102626.50
2022-10-11T09:11:39.711Z,102636.19
2022-10-11T09:15:04.268Z,102634.41
2022-10-11T09:18:12.690Z,102630.13
2022-10-11T09:21:21.112Z,102627.53
2022-10-11T09:24:11.060Z,102630.59
2022-10-11T09:26:52.146Z,102630.19
2022-10-11T09:29:33.423Z,102633.06
2022-10-11T09:32:04.390Z,102634.38
2022-10-11T09:34:40.327Z,102636.81
2022-10-11T09:37:22.199Z,102640.75
2022-10-11T09:39:56.975Z,102623.63
2022-10-11T09:42:25.693Z,102630.78
2022-10-11T09:44:55.027Z,102633.22
2022-10-11T09:47:28.159Z,102618.28
2022-10-11T09:50:01.270Z,102609.28
2022-10-11T09:52:31.399Z,102640.09
2022-10-11T09:55:33.619Z,102639.59
2022-10-11T09:58:07.744Z,102639.97
2022-10-11T10:01:08.601Z,102637.41
2022-10-11T10:04:36.831Z,102637.66
2022-10-11T10:07:13.986Z,102632.66
2022-10-11T10:09:44.057Z,102633.03
2022-10-11T10:12:23.869Z,102594.66
2022-10-11T10:15:00.334Z,102620.56
2022-10-11T10:17:32.695Z,102628.09
2022-10-11T10:20:02.267Z,102624.75
2022-10-11T10:22:36.831Z,102609.38
2022-10-11T10:25:09.411Z,102579.22
2022-10-11T10:28:18.417Z,102634.09
2022-10-11T10:30:54.574Z,102616.22
2022-10-11T10:33:55.744Z,102610.19
2022-10-11T10:36:30.325Z,102608.50
2022-10-11T10:39:08.254Z,102609.72
2022-10-11T10:41:39.398Z,102609.44
2022-10-11T10:44:11.602Z,102602.72
2022-10-11T10:47:03.560Z,102604.38
2022-10-11T10:49:53.713Z,102574.81
2022-10-11T10:52:44.566Z,102602.69
2022-10-11T10:55:23.803Z,102599.69
2022-10-11T10:58:42.696Z,102601.25
2022-10-11T11:01:17.558Z,102601.41
2022-10-11T11:03:52.777Z,102599.34
2022-10-11T11:07:00.544Z,102605.63
2022-10-11T11:09:40.479Z,102609.69
2022-10-11T11:12:27.512Z,102610.03
2022-10-11T11:15:07.548Z,102606.69
2022-10-11T11:17:52.136Z,102598.81
2022-10-11T11:20:55.054Z,102596.88
2022-10-11T11:23:33.546Z,102600.69
2022-10-11T11:26:11.477Z,102601.69
2022-10-11T11:29:02.433Z,102596.69
2022-10-11T11:31:59.854Z,102593.84
2022-10-11T11:35:01.818Z,102598.69
2022-10-11T11:37:35.771Z,102590.81
2022-10-11T11:40:14.863Z,102579.50
2022-10-11T11:42:49.768Z,102589.72
2022-10-11T11:48:46.138Z,102568.22
2022-10-11T11:51:20.571Z,102572.22
2022-10-11T11:53:56.822Z,102570.19
2022-10-11T11:56:59.124Z,102577.66
2022-10-11T11:59:37.308Z,102553.66
2022-10-11T12:02:34.539Z,102568.63
2022-10-11T12:05:34.045Z,102564.03
2022-10-11T12:08:07.149Z,102567.19
2022-10-11T12:10:40.068Z,102517.00
2022-10-11T12:13:22.650Z,102559.28
2022-10-11T12:16:11.984Z,102563.72
2022-10-11T12:19:17.646Z,102559.09
2022-10-11T12:21:48.007Z,102545.75
2022-10-11T12:24:24.429Z,102553.94
2022-10-11T12:26:56.520Z,102562.34
2022-10-11T12:29:54.661Z,102555.03
2022-10-11T12:32:52.179Z,102550.25
2022-10-11T12:36:30.735Z,102551.09
2022-10-11T12:39:53.169Z,102555.31
2022-10-11T12:42:45.845Z,102551.25
2022-10-11T12:46:21.911Z,102556.06
2022-10-11T12:49:00.360Z,102552.34
2022-10-11T12:51:41.405Z,102557.59
2022-10-11T12:54:50.474Z,102544.53
2022-10-11T12:58:04.326Z,102552.72
2022-10-11T13:01:25.792Z,102543.88
2022-10-11T13:04:04.536Z,102519.88
2022-10-11T13:10:49.217Z,102538.81
2022-10-11T13:13:53.549Z,102544.16
2022-10-11T13:17:00.313Z,102530.34
2022-10-11T13:20:00.656Z,102542.44
2022-10-11T13:22:35.526Z,102527.50
2022-10-11T13:25:06.473Z,102526.19
2022-10-11T13:27:39.418Z,102533.84
2022-10-11T13:30:18.807Z,102519.97
2022-10-11T13:32:48.709Z,102516.41
2022-10-11T13:35:25.169Z,102530.38
2022-10-11T13:37:56.688Z,102525.63
2022-10-11T13:40:26.256Z,102527.56
2022-10-11T13:43:51.711Z,102526.66
2022-10-11T13:46:24.100Z,102441.84
2022-10-11T13:49:29.035Z,102522.13
2022-10-11T13:52:01.245Z,102518.06
2022-10-11T13:55:06.032Z,102518.59
2022-10-11T13:57:38.596Z,102523.84
2022-10-11T14:00:38.035Z,102528.22
2022-10-11T14:03:22.967Z,102524.38
2022-10-11T14:05:57.217Z,102528.50
2022-10-11T14:08:35.750Z,102520.47
2022-10-11T14:11:35.506Z,102529.81
2022-10-11T14:14:51.251Z,102522.03
2022-10-11T14:17:24.825Z,102519.47
2022-10-11T14:20:15.498Z,102513.09
2022-10-11T14:22:45.598Z,102518.22
2022-10-11T14:25:14.600Z,102511.88
2022-10-11T14:28:14.078Z,102522.41
2022-10-11T14:30:45.463Z,102403.66
2022-10-11T14:33:14.960Z,102517.81
2022-10-11T14:35:45.095Z,102517.09
2022-10-11T14:38:14.052Z,102510.16
2022-10-11T14:40:50.947Z,102511.50
2022-10-11T14:43:22.776Z,102513.47
2022-10-11T14:45:52.009Z,102512.69
2022-10-11T14:48:53.761Z,102511.91
2022-10-11T14:51:20.232Z,102514.38
2022-10-11T14:53:52.599Z,102503.41
2022-10-11T14:56:28.961Z,102507.78
2022-10-11T14:59:00.659Z,102505.53
2022-10-11T15:01:32.304Z,102503.72
2022-10-11T15:04:01.537Z,102504.97
2022-10-11T15:07:07.583Z,102506.75
2022-10-11T15:09:37.048Z,102494.59
2022-10-11T15:12:06.525Z,102497.03
2022-10-11T15:14:35.369Z,102497.66
2022-10-11T15:17:04.948Z,102491.31
2022-10-11T15:20:03.293Z,102492.00
2022-10-11T15:22:34.446Z,102491.03
2022-10-11T15:25:06.894Z,102488.72
2022-10-11T15:27:35.876Z,102490.72
2022-10-11T15:30:08.797Z,102469.31
2022-10-11T15:32:37.586Z,102486.44
2022-10-11T15:35:07.562Z,102486.31
2022-10-11T15:37:37.764Z,102484.47
2022-10-11T15:40:17.644Z,102484.91
2022-10-11T15:42:46.871Z,102485.94
2022-10-11T15:45:16.704Z,102487.53
2022-10-11T15:47:45.946Z,102471.34
2022-10-11T15:50:23.998Z,102482.94
2022-10-11T15:52:54.697Z,102485.56
2022-10-11T15:55:23.474Z,102483.78
2022-10-11T15:57:52.900Z,102483.69
2022-10-11T16:00:22.467Z,102490.66
2022-10-11T16:02:52.563Z,102484.03
2022-10-11T16:05:50.409Z,102497.22
2022-10-11T16:08:21.618Z,102487.97
2022-10-11T16:10:52.044Z,102486.78
2022-10-11T16:13:21.769Z,102479.41
2022-10-11T16:15:51.146Z,102488.88
2022-10-11T16:18:22.507Z,102494.41
2022-10-11T16:20:52.580Z,102488.44
2022-10-11T16:23:23.862Z,102488.56
2022-10-11T16:25:59.329Z,102490.16
2022-10-11T16:28:29.156Z,102465.97
2022-10-11T16:31:01.668Z,102480.41
2022-10-11T16:33:31.884Z,102406.59
2022-10-11T16:36:21.440Z,102485.56
2022-10-11T16:38:51.937Z,102492.84
2022-10-11T16:41:21.850Z,102480.31
2022-10-11T16:43:52.654Z,102479.66
2022-10-11T16:46:22.461Z,102492.75
2022-10-11T16:48:51.378Z,102487.06
2022-10-11T16:51:20.660Z,102466.63
2022-10-11T16:53:51.539Z,102416.34
2022-10-11T16:56:22.823Z,102408.38
2022-10-11T16:58:53.512Z,102480.94
2022-10-11T17:01:23.180Z,102495.75
2022-10-11T17:03:52.507Z,102514.97
2022-10-11T17:06:24.315Z,102378.13
2022-10-11T17:08:55.577Z,102498.66
2022-10-11T17:11:24.804Z,102475.78
2022-10-11T17:13:54.444Z,102482.72
2022-10-11T17:16:23.787Z,102501.91
2022-10-11T17:18:52.930Z,102496.84
2022-10-11T17:21:23.566Z,102502.31
2022-10-11T17:23:54.091Z,102494.66
2022-10-11T17:26:26.323Z,102498.38
2022-10-11T17:28:56.021Z,102498.88
2022-10-11T17:31:25.402Z,102492.06
2022-10-11T17:33:54.986Z,102367.41
2022-10-11T17:36:27.955Z,102503.63
2022-10-11T17:38:59.108Z,102502.13
2022-10-11T17:41:31.799Z,102493.66
2022-10-11T17:44:02.886Z,102507.69
2022-10-11T17:46:32.979Z,102465.81
2022-10-11T17:49:09.446Z,102473.41
2022-10-11T17:51:38.937Z,102497.63
2022-10-11T17:54:13.428Z,102493.47
2022-10-11T17:56:43.582Z,102486.09
2022-10-11T17:59:18.248Z,102470.97
2022-10-11T18:01:47.491Z,102486.47
2022-10-11T18:04:17.838Z,102495.00
2022-10-11T18:06:48.975Z,102482.50
2022-10-11T18:09:19.927Z,102489.22
2022-10-11T18:11:49.899Z,102494.88
2022-10-11T18:14:21.204Z,102487.44
2022-10-11T18:16:50.522Z,102497.28
2022-10-11T18:19:19.587Z,102495.84
2022-10-11T18:21:48.639Z,102452.53
2022-10-11T18:24:19.217Z,102497.13
2022-10-11T18:26:48.254Z,102492.00
2022-10-11T18:29:19.426Z,102505.41
2022-10-11T18:31:48.143Z,102488.00
2022-10-11T18:34:16.827Z,102498.44
2022-10-11T18:36:50.206Z,102498.56
2022-10-11T18:39:21.820Z,102502.19
2022-10-11T18:41:50.539Z,102496.81
2022-10-11T18:44:19.287Z,102496.72
2022-10-11T18:46:51.197Z,102493.94
2022-10-11T18:49:19.921Z,102489.97
2022-10-11T18:51:49.079Z,102491.09
2022-10-11T18:54:21.374Z,102492.19
2022-10-11T18:56:50.544Z,102501.84
2022-10-11T18:59:20.426Z,102492.81
2022-10-11T19:01:52.157Z,102486.81
2022-10-11T19:04:21.924Z,102477.56
2022-10-11T19:06:53.307Z,102488.91
2022-10-11T19:09:26.491Z,102483.09
2022-10-11T19:11:59.271Z,102487.47
2022-10-11T19:14:30.420Z,102485.72
2022-10-11T19:16:59.450Z,102489.88
2022-10-11T19:19:30.810Z,102483.00
2022-10-11T19:22:00.159Z,102462.56
2022-10-11T19:24:31.374Z,102493.81
2022-10-11T19:27:02.787Z,102487.03
2022-10-11T19:29:33.301Z,102491.59
2022-10-11T19:32:03.132Z,102493.50
2022-10-11T19:34:32.766Z,102494.56
2022-10-11T19:37:03.478Z,102496.41
2022-10-11T19:39:33.823Z,102479.19
2022-10-11T19:42:04.339Z,102476.66
2022-10-11T19:44:38.698Z,102380.88
2022-10-11T19:47:10.114Z,102481.22
2022-10-11T19:49:40.916Z,102487.28
2022-10-11T19:52:09.923Z,102486.50
2022-10-11T19:54:42.776Z,102490.84
2022-10-11T19:57:11.640Z,102471.41
2022-10-11T19:59:42.925Z,102491.88
2022-10-11T20:02:13.715Z,102484.13
2022-10-11T20:04:57.755Z,102489.38
2022-10-11T20:07:28.993Z,102486.75
2022-10-11T20:10:01.719Z,102494.56
2022-10-11T20:12:31.107Z,102488.56
2022-10-11T20:14:59.971Z,102492.09
2022-10-11T20:17:48.345Z,102481.81
2022-10-11T20:20:17.588Z,102495.63
2022-10-11T20:22:46.531Z,102500.91
2022-10-11T20:25:16.798Z,102494.94
2022-10-11T20:27:46.433Z,102488.03
2022-10-11T20:30:15.084Z,102497.53
2022-10-11T20:32:43.852Z,102488.84
2022-10-11T20:35:16.406Z,102489.78
2022-10-11T20:37:45.126Z,102489.84
2022-10-11T20:40:17.543Z,102484.78
2022-10-11T20:42:46.351Z,102489.06
2022-10-11T20:45:15.028Z,102484.84
2022-10-11T20:47:43.750Z,102488.38
2022-10-11T20:50:12.551Z,102487.53
2022-10-11T20:52:41.341Z,102490.28
2022-10-11T20:55:12.607Z,102496.28
2022-10-11T20:57:42.646Z,102489.78
2022-10-11T21:00:12.447Z,102483.91
2022-10-11T21:02:41.061Z,102476.25
2022-10-11T21:05:10.010Z,102479.72
2022-10-11T21:07:44.703Z,102479.84
2022-10-11T21:10:13.708Z,102486.00
2022-10-11T21:12:43.874Z,102487.84
2022-10-11T21:15:13.199Z,102493.13
2022-10-11T21:17:41.791Z,102494.88
2022-10-11T21:20:11.193Z,102492.34
2022-10-11T21:22:39.864Z,102490.66
2022-10-11T21:25:08.645Z,102490.78
2022-10-11T21:27:37.601Z,102489.63
2022-10-11T21:30:09.414Z,102489.91
2022-10-11T21:32:38.161Z,102496.00
2022-10-11T21:35:07.013Z,102481.50
2022-10-11T21:37:36.200Z,102499.66
2022-10-11T21:40:08.319Z,102492.78
2022-10-11T21:42:37.238Z,102491.06
2022-10-11T21:45:08.542Z,102493.75
2022-10-11T21:47:40.660Z,102488.56
2022-10-11T21:50:09.748Z,102487.69
2022-10-11T21:52:38.408Z,102489.41
2022-10-11T21:55:07.384Z,102484.22
2022-10-11T21:57:36.068Z,102492.09
2022-10-11T22:00:08.516Z,102484.47
2022-10-11T22:02:42.025Z,102485.28
2022-10-11T22:05:10.741Z,102487.09
2022-10-11T22:07:42.097Z,102488.88
2022-10-11T22:10:10.825Z,102490.63
2022-10-11T22:12:39.503Z,102482.03
2022-10-11T22:15:11.257Z,102489.75
2022-10-11T22:17:39.999Z,102491.47
2022-10-11T22:20:09.607Z,102491.41
2022-10-11T22:22:38.466Z,102482.78
2022-10-11T22:25:08.135Z,102481.09
2022-10-11T22:27:39.605Z,102480.28
2022-10-11T22:30:11.140Z,102479.44
2022-10-11T22:32:39.969Z,102485.53
2022-10-11T22:35:09.300Z,102477.72
2022-10-11T22:37:38.621Z,102476.00
2022-10-11T22:40:08.881Z,102475.22
2022-10-11T22:42:39.928Z,102451.22
2022-10-11T22:45:15.539Z,102475.31
2022-10-11T22:47:46.561Z,102476.16
2022-10-11T22:50:15.246Z,102472.66
2022-10-11T22:52:43.909Z,102463.13
2022-10-11T22:55:17.529Z,102464.00
2022-10-11T22:57:48.550Z,102466.75
2022-10-11T23:00:19.199Z,102466.66
2022-10-11T23:02:48.116Z,102462.38
2022-10-11T23:05:16.821Z,102429.84
2022-10-11T23:07:47.873Z,102449.66
2022-10-11T23:10:17.358Z,102464.16
2022-10-11T23:12:48.604Z,102460.53
2022-10-11T23:15:18.826Z,102463.94
2022-10-11T23:17:47.709Z,102454.13
2022-10-11T23:20:16.592Z,102462.97
2022-10-11T23:22:45.951Z,102461.44
2022-10-11T23:25:14.899Z,102458.06
2022-10-11T23:27:44.060Z,102453.78
2022-10-11T23:30:14.584Z,102381.00
2022-10-11T23:32:44.705Z,102465.97
2022-10-11T23:35:13.365Z,102463.41
2022-10-11T23:37:41.987Z,102448.78
2022-10-11T23:40:13.498Z,102461.56
2022-10-11T23:42:43.105Z,102459.03
2022-10-11T23:45:12.291Z,102453.16
2022-10-11T23:47:41.127Z,102457.56
2022-10-11T23:50:11.827Z,102456.75
2022-10-11T23:52:40.479Z,102453.34
2022-10-11T23:55:09.965Z,102457.66
2022-10-11T23:57:40.848Z,102433.69
